createdAt,value
2023-05-06T00:00:10.330Z,97000.13
2023-05-06T00:02:39.576Z,96993.69
2023-05-06T00:05:07.055Z,97000.16
2023-05-06T00:07:33.750Z,96994.47
2023-05-06T00:10:00.538Z,96992.84
2023-05-06T00:12:27.141Z,96999.72
2023-05-06T00:14:55.958Z,97004.84
2023-05-06T00:17:25.064Z,96998.84
2023-05-06T00:19:54.364Z,97001.91
2023-05-06T00:22:21.031Z,96996.34
2023-05-06T00:24:47.879Z,96988.16
2023-05-06T00:27:14.453Z,96985.00
2023-05-06T00:29:41.025Z,96983.34
2023-05-06T00:32:07.695Z,96987.94
2023-05-06T00:34:34.370Z,96990.97
2023-05-06T00:37:05.861Z,96973.41
2023-05-06T00:39:33.528Z,96979.28
2023-05-06T00:42:03.621Z,96991.44
2023-05-06T00:44:32.673Z,96987.72
2023-05-06T00:47:00.908Z,96989.72
2023-05-06T00:49:29.282Z,96987.19
2023-05-06T00:51:59.584Z,96984.03
2023-05-06T00:54:26.942Z,96983.50
2023-05-06T00:56:56.219Z,96981.31
2023-05-06T00:59:23.352Z,96975.94
2023-05-06T01:01:54.018Z,96979.78
2023-05-06T01:04:24.218Z,96975.38
2023-05-06T01:07:23.629Z,96983.25
2023-05-06T01:10:01.692Z,96986.53
2023-05-06T01:12:29.017Z,96976.19
2023-05-06T01:15:23.081Z,96971.16
2023-05-06T01:17:53.240Z,96980.41
2023-05-06T01:20:21.581Z,96981.19
2023-05-06T01:22:49.954Z,96981.53
2023-05-06T01:25:22.884Z,96978.38
2023-05-06T01:27:52.865Z,96984.47
2023-05-06T01:30:21.123Z,96989.81
2023-05-06T01:32:57.990Z,96981.53
2023-05-06T01:35:44.700Z,96985.91
2023-05-06T01:38:32.220Z,96989.06
2023-05-06T01:41:03.930Z,96984.66
2023-05-06T01:43:37.793Z,96986.75
2023-05-06T01:46:11.561Z,96979.34
2023-05-06T01:48:42.825Z,96986.22
2023-05-06T01:51:09.440Z,96980.66
2023-05-06T01:53:36.169Z,96983.06
2023-05-06T01:56:04.966Z,96986.66
2023-05-06T01:58:36.128Z,96987.41
2023-05-06T02:01:02.728Z,96983.38
2023-05-06T02:03:37.560Z,96983.38
2023-05-06T02:06:09.383Z,96969.88
2023-05-06T02:08:38.913Z,96979.13
2023-05-06T02:11:05.606Z,96978.03
2023-05-06T02:13:32.321Z,96982.81
2023-05-06T02:16:01.661Z,96983.59
2023-05-06T02:18:31.159Z,96978.69
2023-05-06T02:20:57.735Z,96987.94
2023-05-06T02:23:28.842Z,96984.91
2023-05-06T02:25:55.547Z,96977.28
2023-05-06T02:28:25.346Z,96962.88
2023-05-06T02:30:58.038Z,96970.50
2023-05-06T02:33:24.786Z,96974.31
2023-05-06T02:35:51.535Z,96971.91
2023-05-06T02:38:21.219Z,96970.47
2023-05-06T02:40:52.962Z,96978.13
2023-05-06T02:43:19.528Z,96970.25
2023-05-06T02:45:48.438Z,96971.25
2023-05-06T02:48:15.124Z,96972.00
2023-05-06T02:50:41.927Z,96964.38
2023-05-06T02:53:09.419Z,96966.75
2023-05-06T02:55:36.473Z,96967.97
2023-05-06T02:58:05.360Z,96969.50
2023-05-06T03:00:31.980Z,96968.38
2023-05-06T03:02:58.623Z,96960.44
2023-05-06T03:05:30.315Z,96961.41
2023-05-06T03:07:57.325Z,96963.06
2023-05-06T03:10:24.122Z,96963.81
2023-05-06T03:12:53.074Z,96951.72
2023-05-06T03:15:19.627Z,96951.84
2023-05-06T03:17:48.112Z,96953.91
2023-05-06T03:20:14.835Z,96958.72
2023-05-06T03:22:42.395Z,96959.47
2023-05-06T03:25:09.715Z,96962.19
2023-05-06T03:27:38.757Z,96959.47
2023-05-06T03:30:06.502Z,96958.56
2023-05-06T03:32:37.637Z,96950.81
2023-05-06T03:35:04.531Z,96961.22
2023-05-06T03:37:34.131Z,96956.78
2023-05-06T03:40:00.849Z,96970.41
2023-05-06T03:42:29.585Z,96970.84
2023-05-06T03:44:56.174Z,96978.09
2023-05-06T03:47:22.766Z,96978.75
2023-05-06T03:49:49.406Z,96974.19
2023-05-06T03:52:18.458Z,96969.41
2023-05-06T03:54:44.980Z,96968.03
2023-05-06T03:57:11.522Z,96974.88
2023-05-06T03:59:40.409Z,96970.19
2023-05-06T04:02:07.340Z,96955.94
2023-05-06T04:04:36.207Z,96963.28
2023-05-06T04:07:03.861Z,96968.06
2023-05-06T04:09:32.964Z,96962.59
2023-05-06T04:12:02.733Z,96963.34
2023-05-06T04:14:34.053Z,96955.41
2023-05-06T04:17:02.919Z,96959.34
2023-05-06T04:19:32.227Z,96961.66
2023-05-06T04:21:59.982Z,96960.28
2023-05-06T04:24:29.500Z,96959.84
2023-05-06T04:26:56.134Z,96970.44
2023-05-06T04:29:22.858Z,96973.38
2023-05-06T04:31:49.455Z,96970.03
2023-05-06T04:34:18.234Z,96961.66
2023-05-06T04:36:44.806Z,96957.34
2023-05-06T04:39:14.318Z,96955.06
2023-05-06T04:41:44.535Z,96954.75
2023-05-06T04:44:11.212Z,96957.34
2023-05-06T04:46:37.754Z,96954.47
2023-05-06T04:49:06.688Z,96961.94
2023-05-06T04:51:35.748Z,96959.56
2023-05-06T04:54:05.014Z,96961.31
2023-05-06T04:56:33.814Z,96965.13
2023-05-06T04:59:02.725Z,96963.41
2023-05-06T05:01:29.335Z,96970.47
2023-05-06T05:03:55.953Z,96967.19
2023-05-06T05:06:22.542Z,96971.47
2023-05-06T05:08:57.080Z,96981.47
2023-05-06T05:11:23.704Z,96976.69
2023-05-06T05:13:56.919Z,96979.47
2023-05-06T05:16:24.486Z,96977.91
2023-05-06T05:18:51.096Z,96972.88
2023-05-06T05:21:17.645Z,96976.41
2023-05-06T05:23:44.208Z,96973.25
2023-05-06T05:26:10.784Z,96973.31
2023-05-06T05:28:42.262Z,96981.53
2023-05-06T05:31:11.295Z,96969.69
2023-05-06T05:33:40.187Z,96972.56
2023-05-06T05:36:07.956Z,96968.00
2023-05-06T05:38:34.659Z,96972.34
2023-05-06T05:41:05.863Z,96974.75
2023-05-06T05:43:32.760Z,96978.97
2023-05-06T05:46:04.163Z,96983.03
2023-05-06T05:48:33.245Z,96989.81
2023-05-06T05:51:04.693Z,96990.97
2023-05-06T05:53:36.137Z,96988.81
2023-05-06T05:56:05.702Z,96981.59
2023-05-06T05:58:32.279Z,96985.78
2023-05-06T06:01:01.842Z,96984.81
2023-05-06T06:03:30.789Z,96990.03
2023-05-06T06:05:59.719Z,96985.28
2023-05-06T06:08:29.891Z,96981.22
2023-05-06T06:10:56.583Z,96985.97
2023-05-06T06:13:24.820Z,96981.91
2023-05-06T06:15:52.578Z,96978.97
2023-05-06T06:18:21.785Z,96985.56
2023-05-06T06:20:49.023Z,96980.63
2023-05-06T06:23:16.493Z,96985.44
2023-05-06T06:25:42.999Z,96983.31
2023-05-06T06:28:10.059Z,96983.22
2023-05-06T06:30:36.610Z,96979.59
2023-05-06T06:33:03.371Z,96975.41
2023-05-06T06:35:30.154Z,96986.28
2023-05-06T06:37:56.832Z,96981.56
2023-05-06T06:40:23.406Z,96985.97
2023-05-06T06:42:50.032Z,96983.69
2023-05-06T06:45:18.957Z,96978.75
2023-05-06T06:47:47.912Z,96988.56
2023-05-06T06:50:16.867Z,96982.00
2023-05-06T06:52:48.025Z,96991.13
2023-05-06T06:55:14.639Z,96996.19
2023-05-06T06:57:46.304Z,96990.56
2023-05-06T07:00:13.333Z,96992.06
2023-05-06T07:02:39.963Z,96989.31
2023-05-06T07:05:09.853Z,96988.09
2023-05-06T07:07:39.646Z,96983.97
2023-05-06T07:10:06.970Z,96981.78
2023-05-06T07:12:33.574Z,96979.25
2023-05-06T07:15:06.694Z,96985.41
2023-05-06T07:17:36.384Z,96985.47
2023-05-06T07:20:05.645Z,96983.88
2023-05-06T07:22:32.271Z,96982.50
2023-05-06T07:25:03.833Z,96978.44
2023-05-06T07:27:32.664Z,96972.59
2023-05-06T07:29:59.238Z,96973.47
2023-05-06T07:32:30.882Z,96975.50
2023-05-06T07:34:57.454Z,96967.34
2023-05-06T07:37:23.996Z,96968.69
2023-05-06T07:39:52.838Z,96968.50
2023-05-06T07:42:19.484Z,96975.75
2023-05-06T07:44:48.543Z,96981.03
2023-05-06T07:47:25.884Z,96983.63
2023-05-06T07:49:55.555Z,96984.00
2023-05-06T07:52:23.451Z,96987.03
2023-05-06T07:54:53.545Z,96994.81
2023-05-06T07:57:25.068Z,96992.28
2023-05-06T07:59:52.963Z,96999.19
2023-05-06T08:02:24.201Z,97004.00
2023-05-06T08:04:55.557Z,97002.78
2023-05-06T08:07:25.331Z,96990.56
2023-05-06T08:09:52.011Z,96987.63
2023-05-06T08:12:18.579Z,96985.94
2023-05-06T08:14:47.493Z,96992.91
2023-05-06T08:17:14.246Z,96986.00
2023-05-06T08:19:43.025Z,96990.19
2023-05-06T08:22:09.565Z,96990.34
2023-05-06T08:24:39.077Z,96985.69
2023-05-06T08:27:05.715Z,96987.09
2023-05-06T08:29:32.413Z,96984.09
2023-05-06T08:32:01.585Z,96981.66
2023-05-06T08:34:30.331Z,96982.31
2023-05-06T08:37:01.704Z,96989.75
2023-05-06T08:39:28.590Z,96997.56
2023-05-06T08:41:57.915Z,96988.81
2023-05-06T08:44:27.577Z,96975.63
2023-05-06T08:46:54.641Z,96970.72
2023-05-06T08:49:21.624Z,96971.25
2023-05-06T08:51:52.265Z,96981.44
2023-05-06T08:54:19.103Z,96981.72
2023-05-06T08:56:54.767Z,96979.31
2023-05-06T08:59:27.215Z,96979.31
2023-05-06T09:01:53.771Z,96968.97
2023-05-06T09:04:20.430Z,96972.28
2023-05-06T09:06:47.128Z,96975.56
2023-05-06T09:09:21.183Z,96972.91
2023-05-06T09:11:54.057Z,96965.47
2023-05-06T09:14:23.866Z,96972.50
2023-05-06T09:16:53.113Z,96963.81
2023-05-06T09:19:21.757Z,96964.59
2023-05-06T09:21:51.848Z,96959.13
2023-05-06T09:24:19.121Z,96962.69
2023-05-06T09:26:48.610Z,96963.47
2023-05-06T09:29:15.721Z,96956.84
2023-05-06T09:31:49.807Z,96960.44
2023-05-06T09:34:21.128Z,96952.28
2023-05-06T09:36:57.175Z,96950.06
2023-05-06T09:39:29.113Z,96941.47
2023-05-06T09:41:55.873Z,96945.75
2023-05-06T09:44:24.058Z,96935.09
2023-05-06T09:46:51.035Z,96942.50
2023-05-06T09:49:19.879Z,96942.53
2023-05-06T09:51:51.674Z,96928.81
2023-05-06T09:54:21.604Z,96927.97
2023-05-06T09:56:48.874Z,96922.59
2023-05-06T09:59:20.909Z,96920.66
2023-05-06T10:01:50.204Z,96912.97
2023-05-06T10:04:18.318Z,96914.69
2023-05-06T10:06:49.016Z,96906.88
2023-05-06T10:09:18.896Z,96905.34
2023-05-06T10:11:47.083Z,96904.31
2023-05-06T10:14:18.337Z,96894.91
2023-05-06T10:16:48.551Z,96900.09
2023-05-06T10:19:22.102Z,96899.06
2023-05-06T10:21:57.953Z,96896.34
2023-05-06T10:24:34.763Z,96891.72
2023-05-06T10:27:05.730Z,96889.75
2023-05-06T10:29:36.509Z,96898.53
2023-05-06T10:32:04.236Z,96889.94
2023-05-06T10:34:40.012Z,96876.38
2023-05-06T10:37:08.847Z,96884.38
2023-05-06T10:39:38.852Z,96874.91
2023-05-06T10:42:10.616Z,96882.22
2023-05-06T10:45:03.963Z,96873.91
2023-05-06T10:47:57.953Z,96873.34
2023-05-06T10:50:26.877Z,96877.25
2023-05-06T10:52:57.371Z,96878.31
2023-05-06T10:55:33.219Z,96872.09
2023-05-06T10:58:26.266Z,96868.69
2023-05-06T11:00:56.229Z,96872.94
2023-05-06T11:03:24.350Z,96858.53
2023-05-06T11:05:54.737Z,96856.34
2023-05-06T11:08:26.104Z,96857.44
2023-05-06T11:10:53.697Z,96857.59
2023-05-06T11:13:24.215Z,96856.28
2023-05-06T11:15:52.222Z,96853.22
2023-05-06T11:18:24.725Z,96845.19
2023-05-06T11:21:12.670Z,96851.78
2023-05-06T11:23:42.750Z,96853.00
2023-05-06T11:26:13.630Z,96853.94
2023-05-06T11:28:47.029Z,96852.50
2023-05-06T11:31:16.976Z,96852.19
2023-05-06T11:33:48.452Z,96841.69
2023-05-06T11:36:18.961Z,96842.00
2023-05-06T11:38:54.534Z,96842.50
2023-05-06T11:41:23.571Z,96843.03
2023-05-06T11:43:54.458Z,96834.06
2023-05-06T11:46:22.930Z,96835.34
2023-05-06T11:48:50.681Z,96832.63
2023-05-06T11:51:22.738Z,96833.38
2023-05-06T11:53:49.301Z,96829.06
2023-05-06T11:56:20.800Z,96826.09
2023-05-06T11:58:49.847Z,96826.59
2023-05-06T12:01:18.598Z,96822.84
2023-05-06T12:03:45.330Z,96821.84
2023-05-06T12:06:14.534Z,96818.75
2023-05-06T12:08:41.553Z,96822.03
2023-05-06T12:11:11.245Z,96828.53
2023-05-06T12:13:39.000Z,96816.78
2023-05-06T12:16:12.157Z,96813.25
2023-05-06T12:18:41.672Z,96812.25
2023-05-06T12:21:10.460Z,96817.06
2023-05-06T12:23:50.914Z,96812.75
2023-05-06T12:26:22.403Z,96827.47
2023-05-06T12:29:10.632Z,96818.56
2023-05-06T12:31:40.039Z,96824.75
2023-05-06T12:34:11.296Z,96826.47
2023-05-06T12:36:44.846Z,96810.84
2023-05-06T12:39:12.357Z,96818.81
2023-05-06T12:41:46.544Z,96813.78
2023-05-06T12:44:43.007Z,96815.81
2023-05-06T12:47:20.091Z,96822.44
2023-05-06T12:49:51.837Z,96807.00
2023-05-06T12:52:20.605Z,96807.00
2023-05-06T12:54:48.046Z,96806.50
2023-05-06T12:57:14.904Z,96808.53
2023-05-06T12:59:43.131Z,96813.75
2023-05-06T13:02:09.906Z,96808.25
2023-05-06T13:04:36.498Z,96800.44
2023-05-06T13:07:05.552Z,96796.13
2023-05-06T13:09:32.763Z,96790.69
2023-05-06T13:12:05.095Z,96786.00
2023-05-06T13:14:34.002Z,96782.97
2023-05-06T13:17:04.849Z,96788.25
2023-05-06T13:19:34.052Z,96774.81
2023-05-06T13:22:01.809Z,96771.03
2023-05-06T13:24:31.052Z,96779.34
2023-05-06T13:27:01.360Z,96776.19
2023-05-06T13:29:29.425Z,96776.31
2023-05-06T13:31:56.439Z,96778.16
2023-05-06T13:34:26.041Z,96770.78
2023-05-06T13:36:54.626Z,96768.41
2023-05-06T13:39:21.863Z,96764.13
2023-05-06T13:41:54.274Z,96764.16
2023-05-06T13:44:21.553Z,96762.44
2023-05-06T13:46:48.772Z,96760.75
2023-05-06T13:49:18.587Z,96769.25
2023-05-06T13:51:45.154Z,96766.19
2023-05-06T13:54:11.888Z,96760.97
2023-05-06T13:56:41.039Z,96763.72
2023-05-06T13:59:08.430Z,96757.94
2023-05-06T14:01:35.564Z,96753.59
2023-05-06T14:04:02.149Z,96756.19
2023-05-06T14:06:28.960Z,96756.19
2023-05-06T14:08:55.800Z,96755.00
2023-05-06T14:11:22.686Z,96741.34
2023-05-06T14:13:49.206Z,96748.56
2023-05-06T14:16:16.696Z,96748.88
2023-05-06T14:18:43.552Z,96740.09
2023-05-06T14:21:10.115Z,96737.97
2023-05-06T14:23:37.932Z,96736.25
2023-05-06T14:26:06.828Z,96738.91
2023-05-06T14:28:33.390Z,96730.25
2023-05-06T14:31:02.461Z,96723.47
2023-05-06T14:33:31.120Z,96730.25
2023-05-06T14:36:03.285Z,96737.25
2023-05-06T14:38:32.230Z,96731.81
2023-05-06T14:41:01.285Z,96738.31
2023-05-06T14:43:30.036Z,96732.53
2023-05-06T14:45:56.680Z,96726.72
2023-05-06T14:48:25.476Z,96728.13
2023-05-06T14:50:54.679Z,96726.16
2023-05-06T14:53:24.263Z,96725.16
2023-05-06T14:55:50.941Z,96719.06
2023-05-06T14:58:20.533Z,96729.16
2023-05-06T15:00:52.036Z,96720.66
2023-05-06T15:03:18.654Z,96717.53
2023-05-06T15:05:47.598Z,96713.22
2023-05-06T15:08:14.183Z,96713.53
2023-05-06T15:10:43.059Z,96710.84
2023-05-06T15:13:14.447Z,96710.50
2023-05-06T15:15:41.429Z,96707.59
2023-05-06T15:18:08.093Z,96709.94
2023-05-06T15:20:36.973Z,96713.69
2023-05-06T15:23:03.553Z,96710.97
2023-05-06T15:25:35.958Z,96710.78
2023-05-06T15:28:05.917Z,96709.94
2023-05-06T15:30:32.508Z,96707.88
2023-05-06T15:33:02.782Z,96713.41
2023-05-06T15:35:31.501Z,96715.22
2023-05-06T15:38:00.455Z,96721.38
2023-05-06T15:40:31.855Z,96718.94
2023-05-06T15:43:00.854Z,96716.19
2023-05-06T15:45:27.399Z,96712.41
2023-05-06T15:47:55.494Z,96713.66
2023-05-06T15:50:33.503Z,96711.19
2023-05-06T15:53:01.477Z,96713.19
2023-05-06T15:55:42.302Z,96707.56
2023-05-06T15:58:16.982Z,96717.09
2023-05-06T16:00:43.610Z,96709.03
2023-05-06T16:03:12.159Z,96702.16
2023-05-06T16:05:39.581Z,96704.63
2023-05-06T16:08:11.031Z,96708.53
2023-05-06T16:10:39.860Z,96709.56
2023-05-06T16:13:06.684Z,96695.28
2023-05-06T16:15:33.315Z,96697.78
2023-05-06T16:17:59.989Z,96687.16
2023-05-06T16:20:26.653Z,96687.72
2023-05-06T16:22:55.554Z,96700.81
2023-05-06T16:25:22.148Z,96699.25
2023-05-06T16:27:51.246Z,96699.31
2023-05-06T16:30:17.902Z,96700.56
2023-05-06T16:32:46.950Z,96700.81
2023-05-06T16:35:18.570Z,96697.56
2023-05-06T16:37:45.093Z,96695.81
2023-05-06T16:40:21.842Z,96696.53
2023-05-06T16:42:53.503Z,96695.34
2023-05-06T16:45:20.652Z,96691.28
2023-05-06T16:47:49.730Z,96689.81
2023-05-06T16:50:16.374Z,96694.63
2023-05-06T16:52:42.917Z,96689.56
2023-05-06T16:55:09.679Z,96691.59
2023-05-06T16:57:36.572Z,96690.09
2023-05-06T17:00:07.885Z,96693.56
2023-05-06T17:02:34.678Z,96693.81
2023-05-06T17:05:03.520Z,96691.53
2023-05-06T17:07:30.026Z,96690.22
2023-05-06T17:09:56.863Z,96701.19
2023-05-06T17:12:26.915Z,96693.94
2023-05-06T17:14:56.442Z,96711.38
2023-05-06T17:17:28.577Z,96705.56
2023-05-06T17:19:57.399Z,96705.31
2023-05-06T17:22:26.345Z,96705.06
2023-05-06T17:24:58.061Z,96703.06
2023-05-06T17:27:29.367Z,96702.78
2023-05-06T17:29:55.907Z,96701.00
2023-05-06T17:32:24.948Z,96694.22
2023-05-06T17:34:51.659Z,96693.97
2023-05-06T17:37:18.324Z,96699.69
2023-05-06T17:39:47.293Z,96696.72
2023-05-06T17:42:16.856Z,96698.88
2023-05-06T17:44:43.466Z,96705.13
2023-05-06T17:47:10.659Z,96705.31
2023-05-06T17:49:39.810Z,96707.75
2023-05-06T17:52:06.444Z,96712.47
2023-05-06T17:54:36.535Z,96713.16
2023-05-06T17:57:03.655Z,96713.34
2023-05-06T17:59:30.506Z,96713.63
2023-05-06T18:02:00.437Z,96710.91
2023-05-06T18:04:27.091Z,96704.59
2023-05-06T18:06:55.937Z,96703.72
2023-05-06T18:09:22.478Z,96716.97
2023-05-06T18:11:51.655Z,96710.69
2023-05-06T18:14:18.200Z,96721.53
2023-05-06T18:16:45.563Z,96708.34
2023-05-06T18:19:12.244Z,96717.41
2023-05-06T18:21:39.152Z,96716.31
2023-05-06T18:24:16.409Z,96723.97
2023-05-06T18:26:46.372Z,96731.19
2023-05-06T18:29:13.241Z,96730.09
2023-05-06T18:31:39.895Z,96738.34
2023-05-06T18:34:06.484Z,96732.56
2023-05-06T18:36:35.018Z,96739.34
2023-05-06T18:39:02.009Z,96747.03
2023-05-06T18:41:28.593Z,96742.09
2023-05-06T18:44:00.061Z,96752.09
2023-05-06T18:46:27.752Z,96754.09
2023-05-06T18:49:00.903Z,96747.38
2023-05-06T18:51:30.375Z,96748.59
2023-05-06T18:53:56.909Z,96750.72
2023-05-06T18:56:23.545Z,96752.59
2023-05-06T18:58:54.846Z,96751.81
2023-05-06T19:01:21.491Z,96752.53
2023-05-06T19:03:51.798Z,96751.69
2023-05-06T19:06:23.222Z,96750.16
2023-05-06T19:08:49.972Z,96753.19
2023-05-06T19:11:19.127Z,96745.97
2023-05-06T19:13:49.568Z,96748.88
2023-05-06T19:16:16.567Z,96754.81
2023-05-06T19:18:43.219Z,96759.25
2023-05-06T19:21:12.771Z,96764.88
2023-05-06T19:23:42.500Z,96757.16
2023-05-06T19:26:11.269Z,96759.16
2023-05-06T19:28:41.330Z,96753.84
2023-05-06T19:31:11.836Z,96755.56
2023-05-06T19:33:39.453Z,96760.97
2023-05-06T19:36:06.524Z,96768.44
2023-05-06T19:38:34.392Z,96763.16
2023-05-06T19:41:01.516Z,96764.34
2023-05-06T19:43:28.221Z,96760.69
2023-05-06T19:45:54.849Z,96757.34
2023-05-06T19:48:23.656Z,96753.75
2023-05-06T19:50:51.596Z,96753.25
2023-05-06T19:53:23.966Z,96755.75
2023-05-06T19:55:57.851Z,96751.09
2023-05-06T19:58:29.345Z,96748.34
2023-05-06T20:00:58.351Z,96755.19
2023-05-06T20:03:25.380Z,96754.13
2023-05-06T20:05:54.988Z,96755.81
2023-05-06T20:08:24.603Z,96767.06
2023-05-06T20:10:51.357Z,96755.19
2023-05-06T20:13:18.066Z,96761.28
2023-05-06T20:15:45.166Z,96762.00
2023-05-06T20:18:16.835Z,96764.56
2023-05-06T20:20:47.129Z,96758.22
2023-05-06T20:23:13.783Z,96768.41
2023-05-06T20:25:40.658Z,96764.16
2023-05-06T20:28:07.449Z,96757.81
2023-05-06T20:30:38.404Z,96762.06
2023-05-06T20:33:08.092Z,96762.56
2023-05-06T20:35:40.550Z,96760.47
2023-05-06T20:38:11.179Z,96758.22
2023-05-06T20:40:37.812Z,96751.09
2023-05-06T20:45:47.903Z,96750.22
2023-05-06T20:48:15.274Z,96759.22
2023-05-06T20:50:44.395Z,96750.69
2023-05-06T20:53:13.158Z,96760.28
2023-05-06T20:55:42.584Z,96757.09
2023-05-06T20:58:12.163Z,96758.03
2023-05-06T21:00:38.720Z,96749.06
2023-05-06T21:03:05.342Z,96752.56
2023-05-06T21:05:32.455Z,96749.19
2023-05-06T21:07:59.040Z,96748.00
2023-05-06T21:10:25.596Z,96750.28
2023-05-06T21:12:52.224Z,96764.41
2023-05-06T21:15:18.943Z,96761.69
2023-05-06T21:17:45.659Z,96768.03
2023-05-06T21:20:16.550Z,96757.53
2023-05-06T21:22:43.119Z,96758.31
2023-05-06T21:25:10.184Z,96757.69
2023-05-06T21:27:39.096Z,96759.06
2023-05-06T21:30:06.445Z,96760.41
2023-05-06T21:32:35.319Z,96758.31
2023-05-06T21:35:02.717Z,96758.00
2023-05-06T21:37:31.929Z,96763.78
2023-05-06T21:40:04.180Z,96773.78
2023-05-06T21:42:33.221Z,96770.00
2023-05-06T21:44:59.756Z,96764.34
2023-05-06T21:47:26.362Z,96761.31
2023-05-06T21:49:57.527Z,96764.53
2023-05-06T21:52:29.054Z,96766.31
2023-05-06T21:54:58.357Z,96764.97
2023-05-06T21:57:24.894Z,96774.22
2023-05-06T21:59:54.557Z,96774.38
2023-05-06T22:02:21.186Z,96769.66
2023-05-06T22:04:47.794Z,96766.94
2023-05-06T22:07:14.367Z,96773.94
2023-05-06T22:09:43.696Z,96774.94
2023-05-06T22:12:12.918Z,96778.13
2023-05-06T22:14:42.019Z,96770.03
2023-05-06T22:17:12.321Z,96768.66
2023-05-06T22:19:39.035Z,96762.59
2023-05-06T22:22:05.884Z,96755.50
2023-05-06T22:24:32.413Z,96757.31
2023-05-06T22:26:59.108Z,96766.53
2023-05-06T22:29:28.153Z,96765.91
2023-05-06T22:31:54.743Z,96768.47
2023-05-06T22:34:26.205Z,96770.03
2023-05-06T22:36:52.807Z,96773.09
2023-05-06T22:39:22.395Z,96765.97
2023-05-06T22:41:52.314Z,96762.66
2023-05-06T22:44:21.412Z,96755.06
2023-05-06T22:46:48.015Z,96761.56
2023-05-06T22:49:21.897Z,96754.06
2023-05-06T22:51:48.476Z,96766.50
2023-05-06T22:54:17.210Z,96767.31
2023-05-06T22:56:46.153Z,96764.91
2023-05-06T22:59:12.749Z,96762.06
2023-05-06T23:01:39.428Z,96769.03
2023-05-06T23:04:13.505Z,96759.75
2023-05-06T23:06:41.041Z,96765.22
2023-05-06T23:09:07.950Z,96753.41
2023-05-06T23:11:37.080Z,96744.63
2023-05-06T23:14:04.614Z,96745.28
2023-05-06T23:16:33.963Z,96737.88
2023-05-06T23:19:00.596Z,96747.16
2023-05-06T23:21:27.631Z,96743.06
2023-05-06T23:23:54.259Z,96752.09
2023-05-06T23:26:21.014Z,96741.50
2023-05-06T23:28:49.865Z,96743.16
2023-05-06T23:31:18.683Z,96742.59
2023-05-06T23:33:45.261Z,96751.81
2023-05-06T23:36:11.789Z,96758.22
2023-05-06T23:38:43.501Z,96761.38
2023-05-06T23:41:14.849Z,96755.59
2023-05-06T23:43:41.404Z,96750.91
2023-05-06T23:46:08.107Z,96748.00
2023-05-06T23:48:35.641Z,96743.56
2023-05-06T23:51:04.394Z,96743.69
2023-05-06T23:53:30.998Z,96743.81
2023-05-06T23:55:57.569Z,96739.25
2023-05-06T23:58:24.211Z,96743.38
